This is the latest recevied weather packets stored in our database for station/object DL6DJ-15. If no packets are shown the sender has not sent any weather packets the latest 10 day(s).
| Time | Temp. | Humidity | Pressure | Rain* | Wind** | Luminosity | Snow |
|---|---|---|---|---|---|---|---|
| 1777959041 | 25° C | 33% | 1009.9 hPa | - | - | - | - |
| 1777958740 | 24.44° C | 35% | 1009.9 hPa | - | - | - | - |
| 1777958440 | 23.33° C | 37% | 1009.9 hPa | - | - | - | - |
| 1777958140 | 21.67° C | 40% | 1009.9 hPa | - | - | - | - |
| 1777957839 | 20° C | 43% | 1009.8 hPa | - | - | - | - |
| 1777957539 | 18.33° C | 49% | 1009.7 hPa | - | - | - | - |
| 1777957239 | 15.56° C | 57% | 1009.7 hPa | - | - | - | - |
| 1777956938 | 12.78° C | 67% | 1009.8 hPa | - | - | - | - |
| 1777956638 | 10.56° C | 71% | 1009.8 hPa | - | - | - | - |
| 1777956338 | 10.56° C | 70% | 1009.8 hPa | - | - | - | - |
| 1777956037 | 10.56° C | 69% | 1009.8 hPa | - | - | - | - |
| 1777955737 | 10.56° C | 69% | 1009.9 hPa | - | - | - | - |
| 1777955436 | 10.56° C | 70% | 1009.9 hPa | - | - | - | - |
| 1777955136 | 10° C | 71% | 1010.1 hPa | - | - | - | - |
| 1777954836 | 10° C | 69% | 1010.1 hPa | - | - | - | - |
| 1777954535 | 10° C | 69% | 1010.1 hPa | - | - | - | - |
| 1777954235 | 10.56° C | 69% | 1010 hPa | - | - | - | - |
| 1777953935 | 10.56° C | 69% | 1009.9 hPa | - | - | - | - |
| 1777953634 | 10.56° C | 68% | 1010 hPa | - | - | - | - |
| 1777953334 | 10.56° C | 68% | 1010 hPa | - | - | - | - |
| 1777953034 | 10.56° C | 67% | 1010 hPa | - | - | - | - |
| 1777952733 | 10.56° C | 69% | 1009.9 hPa | - | - | - | - |
| 1777952433 | 10.56° C | 67% | 1009.9 hPa | - | - | - | - |
| 1777952132 | 10.56° C | 67% | 1009.8 hPa | - | - | - | - |
| 1777951832 | 10.56° C | 66% | 1009.9 hPa | - | - | - | - |
* Rain since midnight (hover to see other rain measurements)
** Current wind speed in m/s (hover to see current wind gust speed)